sensor_id;sensor_type;location;lat;lon;timestamp;temperature;humidity
62998;DHT22;55949;52.590;7.330;2023-02-01T00:00:47;5.00;99.90
62998;DHT22;55949;52.590;7.330;2023-02-01T00:01:48;5.00;99.90
62998;DHT22;55949;52.590;7.330;2023-02-01T00:02:48;5.00;99.90
62998;DHT22;55949;52.590;7.330;2023-02-01T00:03:49;5.00;99.90
62998;DHT22;55949;52.590;7.330;2023-02-01T00:04:50;5.00;99.90
62998;DHT22;55949;52.590;7.330;2023-02-01T00:05:58;5.00;99.90
62998;DHT22;55949;52.590;7.330;2023-02-01T00:06:59;5.00;99.90
62998;DHT22;55949;52.590;7.330;2023-02-01T00:08:01;5.10;99.90
62998;DHT22;55949;52.590;7.330;2023-02-01T00:09:01;5.10;99.90
62998;DHT22;55949;52.590;7.330;2023-02-01T00:10:04;5.10;99.90
62998;DHT22;55949;52.590;7.330;2023-02-01T00:11:07;5.10;99.90
62998;DHT22;55949;52.590;7.330;2023-02-01T00:12:08;5.10;99.90
62998;DHT22;55949;52.590;7.330;2023-02-01T00:13:09;5.10;99.90
62998;DHT22;55949;52.590;7.330;2023-02-01T00:14:10;5.10;99.90
62998;DHT22;55949;52.590;7.330;2023-02-01T00:15:10;5.10;99.90
62998;DHT22;55949;52.590;7.330;2023-02-01T00:16:17;5.00;99.90
62998;DHT22;55949;52.590;7.330;2023-02-01T00:17:18;5.10;99.90
62998;DHT22;55949;52.590;7.330;2023-02-01T00:18:19;5.10;99.90
62998;DHT22;55949;52.590;7.330;2023-02-01T00:19:19;5.10;99.90
62998;DHT22;55949;52.590;7.330;2023-02-01T00:20:20;5.10;99.90
62998;DHT22;55949;52.590;7.330;2023-02-01T00:21:21;5.10;99.90
62998;DHT22;55949;52.590;7.330;2023-02-01T00:22:22;5.10;99.90
62998;DHT22;55949;52.590;7.330;2023-02-01T00:23:23;5.00;99.90
62998;DHT22;55949;52.590;7.330;2023-02-01T00:24:24;5.10;99.90
62998;DHT22;55949;52.590;7.330;2023-02-01T00:25:24;5.10;99.90
62998;DHT22;55949;52.590;7.330;2023-02-01T00:26:31;5.10;99.90
62998;DHT22;55949;52.590;7.330;2023-02-01T00:27:32;5.20;99.90
62998;DHT22;55949;52.590;7.330;2023-02-01T00:28:33;5.20;99.90
62998;DHT22;55949;52.590;7.330;2023-02-01T00:29:33;5.20;99.90
62998;DHT22;55949;52.590;7.330;2023-02-01T00:30:34;5.20;99.90
62998;DHT22;55949;52.590;7.330;2023-02-01T00:31:35;5.20;99.90
62998;DHT22;55949;52.590;7.330;2023-02-01T00:32:36;5.10;99.90
62998;DHT22;55949;52.590;7.330;2023-02-01T00:33:36;5.20;99.90
62998;DHT22;55949;52.590;7.330;2023-02-01T00:34:37;5.20;99.90
62998;DHT22;55949;52.590;7.330;2023-02-01T00:35:38;5.20;99.90
62998;DHT22;55949;52.590;7.330;2023-02-01T00:36:39;5.30;99.90
62998;DHT22;55949;52.590;7.330;2023-02-01T00:37:40;5.30;99.90
62998;DHT22;55949;52.590;7.330;2023-02-01T00:38:40;5.40;99.90
62998;DHT22;55949;52.590;7.330;2023-02-01T00:39:41;5.30;99.90
62998;DHT22;55949;52.590;7.330;2023-02-01T00:40:42;5.30;99.90
62998;DHT22;55949;52.590;7.330;2023-02-01T00:41:43;5.30;99.90
62998;DHT22;55949;52.590;7.330;2023-02-01T00:42:43;5.30;99.90
62998;DHT22;55949;52.590;7.330;2023-02-01T00:43:44;5.30;99.90
62998;DHT22;55949;52.590;7.330;2023-02-01T00:44:45;5.30;99.90
62998;DHT22;55949;52.590;7.330;2023-02-01T00:45:47;5.40;99.90
62998;DHT22;55949;52.590;7.330;2023-02-01T00:46:47;5.40;99.90
62998;DHT22;55949;52.590;7.330;2023-02-01T00:47:48;5.40;99.90
62998;DHT22;55949;52.590;7.330;2023-02-01T00:48:49;5.40;99.90
62998;DHT22;55949;52.590;7.330;2023-02-01T00:49:50;5.40;99.90
62998;DHT22;55949;52.590;7.330;2023-02-01T00:50:51;5.40;99.90
62998;DHT22;55949;52.590;7.330;2023-02-01T00:51:52;5.40;99.90
62998;DHT22;55949;52.590;7.330;2023-02-01T00:52:52;5.40;99.90
62998;DHT22;55949;52.590;7.330;2023-02-01T00:53:53;5.50;99.90
62998;DHT22;55949;52.590;7.330;2023-02-01T00:54:54;5.50;99.90
62998;DHT22;55949;52.590;7.330;2023-02-01T00:55:55;5.60;99.90
62998;DHT22;55949;52.590;7.330;2023-02-01T00:56:56;5.50;99.90
62998;DHT22;55949;52.590;7.330;2023-02-01T00:57:57;5.50;99.90
62998;DHT22;55949;52.590;7.330;2023-02-01T00:58:58;5.50;99.90
62998;DHT22;55949;52.590;7.330;2023-02-01T00:59:58;5.50;99.90
62998;DHT22;55949;52.590;7.330;2023-02-01T01:02:10;5.50;99.90
62998;DHT22;55949;52.590;7.330;2023-02-01T01:03:12;5.50;99.90
62998;DHT22;55949;52.590;7.330;2023-02-01T01:04:19;5.50;99.90
62998;DHT22;55949;52.590;7.330;2023-02-01T01:05:20;5.70;99.90
62998;DHT22;55949;52.590;7.330;2023-02-01T01:06:24;5.70;99.90
62998;DHT22;55949;52.590;7.330;2023-02-01T01:07:25;5.60;99.90
62998;DHT22;55949;52.590;7.330;2023-02-01T01:08:27;5.50;99.90
62998;DHT22;55949;52.590;7.330;2023-02-01T01:09:28;5.50;99.90
62998;DHT22;55949;52.590;7.330;2023-02-01T01:10:29;5.50;99.90
62998;DHT22;55949;52.590;7.330;2023-02-01T01:11:32;5.40;99.90
62998;DHT22;55949;52.590;7.330;2023-02-01T01:12:32;5.40;99.90
62998;DHT22;55949;52.590;7.330;2023-02-01T01:13:33;5.40;99.90
62998;DHT22;55949;52.590;7.330;2023-02-01T01:14:34;5.40;99.90
62998;DHT22;55949;52.590;7.330;2023-02-01T01:15:39;5.30;99.90
62998;DHT22;55949;52.590;7.330;2023-02-01T01:16:40;5.30;99.90
62998;DHT22;55949;52.590;7.330;2023-02-01T01:17:40;5.30;99.90
62998;DHT22;55949;52.590;7.330;2023-02-01T01:18:42;5.30;99.90
62998;DHT22;55949;52.590;7.330;2023-02-01T01:19:42;5.30;99.90
62998;DHT22;55949;52.590;7.330;2023-02-01T01:20:43;5.30;99.90
62998;DHT22;55949;52.590;7.330;2023-02-01T01:21:44;5.30;99.90
62998;DHT22;55949;52.590;7.330;2023-02-01T01:22:45;5.30;99.90
62998;DHT22;55949;52.590;7.330;2023-02-01T01:23:46;5.30;99.90
62998;DHT22;55949;52.590;7.330;2023-02-01T01:24:47;5.30;99.90
62998;DHT22;55949;52.590;7.330;2023-02-01T01:25:47;5.30;99.90
62998;DHT22;55949;52.590;7.330;2023-02-01T01:26:48;5.30;99.90
62998;DHT22;55949;52.590;7.330;2023-02-01T01:27:49;5.40;99.90
62998;DHT22;55949;52.590;7.330;2023-02-01T01:28:50;5.40;99.90
62998;DHT22;55949;52.590;7.330;2023-02-01T01:29:51;5.30;99.90
62998;DHT22;55949;52.590;7.330;2023-02-01T01:30:52;5.40;99.90
62998;DHT22;55949;52.590;7.330;2023-02-01T01:31:52;5.40;99.90
62998;DHT22;55949;52.590;7.330;2023-02-01T01:32:53;5.40;99.90
62998;DHT22;55949;52.590;7.330;2023-02-01T01:33:56;5.40;99.90
62998;DHT22;55949;52.590;7.330;2023-02-01T01:34:57;5.40;99.90
62998;DHT22;55949;52.590;7.330;2023-02-01T01:35:57;5.40;99.90
62998;DHT22;55949;52.590;7.330;2023-02-01T01:36:58;5.40;99.90
62998;DHT22;55949;52.590;7.330;2023-02-01T01:38:00;5.30;99.90
62998;DHT22;55949;52.590;7.330;2023-02-01T01:39:01;5.30;99.90
62998;DHT22;55949;52.590;7.330;2023-02-01T01:40:03;5.30;99.90
62998;DHT22;55949;52.590;7.330;2023-02-01T01:41:04;5.30;99.90
62998;DHT22;55949;52.590;7.330;2023-02-01T01:42:05;5.30;99.90
62998;DHT22;55949;52.590;7.330;2023-02-01T01:43:16;5.30;99.90
62998;DHT22;55949;52.590;7.330;2023-02-01T01:44:56;5.20;99.90
62998;DHT22;55949;52.590;7.330;2023-02-01T01:45:57;5.20;99.90
62998;DHT22;55949;52.590;7.330;2023-02-01T01:46:57;5.20;99.90
62998;DHT22;55949;52.590;7.330;2023-02-01T01:48:25;5.30;99.90
62998;DHT22;55949;52.590;7.330;2023-02-01T01:49:26;5.20;99.90
62998;DHT22;55949;52.590;7.330;2023-02-01T01:50:46;5.20;99.90
62998;DHT22;55949;52.590;7.330;2023-02-01T01:51:55;5.20;99.90
62998;DHT22;55949;52.590;7.330;2023-02-01T01:53:00;5.20;99.90
62998;DHT22;55949;52.590;7.330;2023-02-01T01:54:11;5.30;99.90
62998;DHT22;55949;52.590;7.330;2023-02-01T01:55:14;5.30;99.90
62998;DHT22;55949;52.590;7.330;2023-02-01T01:56:17;5.30;99.90
62998;DHT22;55949;52.590;7.330;2023-02-01T01:57:22;5.30;99.90
62998;DHT22;55949;52.590;7.330;2023-02-01T01:58:26;5.30;99.90
62998;DHT22;55949;52.590;7.330;2023-02-01T01:59:28;5.30;99.90
62998;DHT22;55949;52.590;7.330;2023-02-01T02:00:32;5.30;99.90
62998;DHT22;55949;52.590;7.330;2023-02-01T02:01:33;5.30;99.90
62998;DHT22;55949;52.590;7.330;2023-02-01T02:02:35;5.30;99.90
62998;DHT22;55949;52.590;7.330;2023-02-01T02:03:42;5.30;99.90
62998;DHT22;55949;52.590;7.330;2023-02-01T02:04:43;5.20;99.90
62998;DHT22;55949;52.590;7.330;2023-02-01T02:05:45;5.30;99.90
62998;DHT22;55949;52.590;7.330;2023-02-01T02:07:00;5.30;99.90
62998;DHT22;55949;52.590;7.330;2023-02-01T02:08:02;5.30;99.90
62998;DHT22;55949;52.590;7.330;2023-02-01T02:09:04;5.30;99.90
62998;DHT22;55949;52.590;7.330;2023-02-01T02:10:08;5.30;99.90
62998;DHT22;55949;52.590;7.330;2023-02-01T02:11:12;5.30;99.90
62998;DHT22;55949;52.590;7.330;2023-02-01T02:12:14;5.30;99.90
62998;DHT22;55949;52.590;7.330;2023-02-01T02:13:16;5.30;99.90
62998;DHT22;55949;52.590;7.330;2023-02-01T02:14:20;5.30;99.90
62998;DHT22;55949;52.590;7.330;2023-02-01T02:15:21;5.30;99.90
62998;DHT22;55949;52.590;7.330;2023-02-01T02:17:58;5.20;99.90
62998;DHT22;55949;52.590;7.330;2023-02-01T02:20:39;5.30;99.90
62998;DHT22;55949;52.590;7.330;2023-02-01T02:24:57;5.30;99.90
62998;DHT22;55949;52.590;7.330;2023-02-01T02:41:33;5.30;99.90
62998;DHT22;55949;52.590;7.330;2023-02-01T02:43:16;5.30;99.90
62998;DHT22;55949;52.590;7.330;2023-02-01T02:46:21;5.40;99.90
62998;DHT22;55949;52.590;7.330;2023-02-01T02:50:40;5.40;99.90
62998;DHT22;55949;52.590;7.330;2023-02-01T02:52:07;5.30;99.90
62998;DHT22;55949;52.590;7.330;2023-02-01T02:53:32;5.30;99.90
62998;DHT22;55949;52.590;7.330;2023-02-01T02:54:54;5.20;99.90
62998;DHT22;55949;52.590;7.330;2023-02-01T02:55:56;5.20;99.90
62998;DHT22;55949;52.590;7.330;2023-02-01T02:57:29;5.20;99.90
62998;DHT22;55949;52.590;7.330;2023-02-01T02:58:48;5.20;99.90
62998;DHT22;55949;52.590;7.330;2023-02-01T03:00:12;5.10;99.90
62998;DHT22;55949;52.590;7.330;2023-02-01T03:01:32;5.10;99.90
62998;DHT22;55949;52.590;7.330;2023-02-01T03:02:52;5.10;99.90
62998;DHT22;55949;52.590;7.330;2023-02-01T03:04:11;5.10;99.90
62998;DHT22;55949;52.590;7.330;2023-02-01T03:05:17;5.10;99.90
62998;DHT22;55949;52.590;7.330;2023-02-01T03:06:18;5.20;99.90
62998;DHT22;55949;52.590;7.330;2023-02-01T03:08:44;5.10;99.90
62998;DHT22;55949;52.590;7.330;2023-02-01T03:09:47;5.10;99.90
62998;DHT22;55949;52.590;7.330;2023-02-01T03:11:10;5.10;99.90
62998;DHT22;55949;52.590;7.330;2023-02-01T03:12:13;5.10;99.90
62998;DHT22;55949;52.590;7.330;2023-02-01T03:14:41;5.10;99.90
62998;DHT22;55949;52.590;7.330;2023-02-01T03:17:13;5.10;99.90
62998;DHT22;55949;52.590;7.330;2023-02-01T03:18:49;5.20;99.90
62998;DHT22;55949;52.590;7.330;2023-02-01T03:19:48;5.10;99.90
62998;DHT22;55949;52.590;7.330;2023-02-01T03:20:53;5.20;99.90
62998;DHT22;55949;52.590;7.330;2023-02-01T03:22:06;5.20;99.90
62998;DHT22;55949;52.590;7.330;2023-02-01T03:23:10;5.30;99.90
62998;DHT22;55949;52.590;7.330;2023-02-01T03:25:25;5.40;99.90
62998;DHT22;55949;52.590;7.330;2023-02-01T03:26:30;5.40;99.90
62998;DHT22;55949;52.590;7.330;2023-02-01T03:27:39;5.40;99.90
62998;DHT22;55949;52.590;7.330;2023-02-01T03:28:47;5.40;99.90
62998;DHT22;55949;52.590;7.330;2023-02-01T03:29:54;5.40;99.90
62998;DHT22;55949;52.590;7.330;2023-02-01T03:30:56;5.40;99.90
62998;DHT22;55949;52.590;7.330;2023-02-01T03:31:57;5.40;99.90
62998;DHT22;55949;52.590;7.330;2023-02-01T03:32:59;5.50;99.90
62998;DHT22;55949;52.590;7.330;2023-02-01T03:34:01;5.50;99.90
62998;DHT22;55949;52.590;7.330;2023-02-01T03:35:02;5.50;99.90
62998;DHT22;55949;52.590;7.330;2023-02-01T03:37:26;5.40;99.90
62998;DHT22;55949;52.590;7.330;2023-02-01T03:39:52;5.40;99.90
62998;DHT22;55949;52.590;7.330;2023-02-01T03:41:06;5.40;99.90
62998;DHT22;55949;52.590;7.330;2023-02-01T03:42:18;5.40;99.90
62998;DHT22;55949;52.590;7.330;2023-02-01T03:43:21;5.40;99.90
62998;DHT22;55949;52.590;7.330;2023-02-01T03:44:31;5.50;99.90
62998;DHT22;55949;52.590;7.330;2023-02-01T03:45:39;5.50;99.90
62998;DHT22;55949;52.590;7.330;2023-02-01T03:46:45;5.40;99.90
62998;DHT22;55949;52.590;7.330;2023-02-01T03:47:48;5.50;99.90
62998;DHT22;55949;52.590;7.330;2023-02-01T03:48:51;5.50;99.90
62998;DHT22;55949;52.590;7.330;2023-02-01T03:49:57;5.50;99.90
62998;DHT22;55949;52.590;7.330;2023-02-01T03:51:02;5.50;99.90
62998;DHT22;55949;52.590;7.330;2023-02-01T03:52:06;5.50;99.90
62998;DHT22;55949;52.590;7.330;2023-02-01T03:53:13;5.50;99.90
62998;DHT22;55949;52.590;7.330;2023-02-01T03:54:15;5.50;99.90
62998;DHT22;55949;52.590;7.330;2023-02-01T03:55:21;5.40;99.90
62998;DHT22;55949;52.590;7.330;2023-02-01T03:56:23;5.50;99.90
62998;DHT22;55949;52.590;7.330;2023-02-01T03:57:34;5.50;99.90
62998;DHT22;55949;52.590;7.330;2023-02-01T03:58:35;5.50;99.90
62998;DHT22;55949;52.590;7.330;2023-02-01T03:59:40;5.50;99.90
62998;DHT22;55949;52.590;7.330;2023-02-01T04:00:44;5.50;99.90
62998;DHT22;55949;52.590;7.330;2023-02-01T04:01:46;5.50;99.90
62998;DHT22;55949;52.590;7.330;2023-02-01T04:02:48;5.50;99.90
62998;DHT22;55949;52.590;7.330;2023-02-01T04:03:48;5.60;99.90
62998;DHT22;55949;52.590;7.330;2023-02-01T04:04:51;5.50;99.90
62998;DHT22;55949;52.590;7.330;2023-02-01T04:05:53;5.60;99.90
62998;DHT22;55949;52.590;7.330;2023-02-01T04:06:54;5.50;99.90
62998;DHT22;55949;52.590;7.330;2023-02-01T04:07:54;5.60;99.90
62998;DHT22;55949;52.590;7.330;2023-02-01T04:08:55;5.60;99.90
62998;DHT22;55949;52.590;7.330;2023-02-01T04:09:56;5.60;99.90
62998;DHT22;55949;52.590;7.330;2023-02-01T04:10:56;5.60;99.90
62998;DHT22;55949;52.590;7.330;2023-02-01T04:11:57;5.60;99.90
62998;DHT22;55949;52.590;7.330;2023-02-01T04:12:58;5.60;99.90
62998;DHT22;55949;52.590;7.330;2023-02-01T04:13:59;5.60;99.90
62998;DHT22;55949;52.590;7.330;2023-02-01T04:15:04;5.60;99.90
62998;DHT22;55949;52.590;7.330;2023-02-01T04:16:06;5.60;99.90
62998;DHT22;55949;52.590;7.330;2023-02-01T04:17:06;5.60;99.90
62998;DHT22;55949;52.590;7.330;2023-02-01T04:18:07;5.50;99.90
62998;DHT22;55949;52.590;7.330;2023-02-01T04:19:08;5.60;99.90
62998;DHT22;55949;52.590;7.330;2023-02-01T04:20:09;5.50;99.90
62998;DHT22;55949;52.590;7.330;2023-02-01T04:21:10;5.50;99.90
62998;DHT22;55949;52.590;7.330;2023-02-01T04:22:11;5.50;99.90
62998;DHT22;55949;52.590;7.330;2023-02-01T04:23:12;5.50;99.90
62998;DHT22;55949;52.590;7.330;2023-02-01T04:24:13;5.50;99.90
62998;DHT22;55949;52.590;7.330;2023-02-01T04:25:14;5.50;99.90
62998;DHT22;55949;52.590;7.330;2023-02-01T04:26:14;5.50;99.90
62998;DHT22;55949;52.590;7.330;2023-02-01T04:27:16;5.50;99.90
62998;DHT22;55949;52.590;7.330;2023-02-01T04:28:17;5.50;99.90
62998;DHT22;55949;52.590;7.330;2023-02-01T04:29:18;5.50;99.90
62998;DHT22;55949;52.590;7.330;2023-02-01T04:30:18;5.50;99.90
62998;DHT22;55949;52.590;7.330;2023-02-01T04:31:19;5.40;99.90
62998;DHT22;55949;52.590;7.330;2023-02-01T04:32:25;5.50;99.90
62998;DHT22;55949;52.590;7.330;2023-02-01T04:33:26;5.50;99.90
62998;DHT22;55949;52.590;7.330;2023-02-01T04:34:26;5.50;99.90
62998;DHT22;55949;52.590;7.330;2023-02-01T04:35:27;5.50;99.90
62998;DHT22;55949;52.590;7.330;2023-02-01T04:36:28;5.50;99.90
62998;DHT22;55949;52.590;7.330;2023-02-01T04:37:28;5.50;99.90
62998;DHT22;55949;52.590;7.330;2023-02-01T04:38:29;5.50;99.90
62998;DHT22;55949;52.590;7.330;2023-02-01T04:39:32;5.50;99.90
62998;DHT22;55949;52.590;7.330;2023-02-01T04:40:33;5.50;99.90
62998;DHT22;55949;52.590;7.330;2023-02-01T04:41:34;5.40;99.90
62998;DHT22;55949;52.590;7.330;2023-02-01T04:42:34;5.50;99.90
62998;DHT22;55949;52.590;7.330;2023-02-01T04:43:35;5.50;99.90
62998;DHT22;55949;52.590;7.330;2023-02-01T04:44:36;5.50;99.90
62998;DHT22;55949;52.590;7.330;2023-02-01T04:45:39;5.40;99.90
62998;DHT22;55949;52.590;7.330;2023-02-01T04:46:40;5.40;99.90
62998;DHT22;55949;52.590;7.330;2023-02-01T04:47:41;5.40;99.90
62998;DHT22;55949;52.590;7.330;2023-02-01T04:48:41;5.40;99.90
62998;DHT22;55949;52.590;7.330;2023-02-01T04:49:42;5.40;99.90
62998;DHT22;55949;52.590;7.330;2023-02-01T04:50:44;5.40;99.90
62998;DHT22;55949;52.590;7.330;2023-02-01T04:51:48;5.40;99.90
62998;DHT22;55949;52.590;7.330;2023-02-01T04:52:49;5.40;99.90
62998;DHT22;55949;52.590;7.330;2023-02-01T04:53:49;5.40;99.90
62998;DHT22;55949;52.590;7.330;2023-02-01T04:54:50;5.40;99.90
62998;DHT22;55949;52.590;7.330;2023-02-01T04:55:51;5.50;99.90
62998;DHT22;55949;52.590;7.330;2023-02-01T04:56:51;5.40;99.90
62998;DHT22;55949;52.590;7.330;2023-02-01T04:57:52;5.50;99.90
62998;DHT22;55949;52.590;7.330;2023-02-01T04:58:53;5.50;99.90
62998;DHT22;55949;52.590;7.330;2023-02-01T04:59:53;5.50;99.90
62998;DHT22;55949;52.590;7.330;2023-02-01T05:00:54;5.50;99.90
62998;DHT22;55949;52.590;7.330;2023-02-01T05:01:55;5.50;99.90
62998;DHT22;55949;52.590;7.330;2023-02-01T05:02:56;5.50;99.90
62998;DHT22;55949;52.590;7.330;2023-02-01T05:03:56;5.50;99.90
62998;DHT22;55949;52.590;7.330;2023-02-01T05:04:57;5.60;99.90
62998;DHT22;55949;52.590;7.330;2023-02-01T05:05:58;5.60;99.90
62998;DHT22;55949;52.590;7.330;2023-02-01T05:06:59;5.60;99.90
62998;DHT22;55949;52.590;7.330;2023-02-01T05:08:00;5.50;99.90
62998;DHT22;55949;52.590;7.330;2023-02-01T05:09:00;5.60;99.90
62998;DHT22;55949;52.590;7.330;2023-02-01T05:10:01;5.70;99.90
62998;DHT22;55949;52.590;7.330;2023-02-01T05:11:02;5.80;99.90
62998;DHT22;55949;52.590;7.330;2023-02-01T05:12:04;5.70;99.90
62998;DHT22;55949;52.590;7.330;2023-02-01T05:13:23;5.80;99.90
62998;DHT22;55949;52.590;7.330;2023-02-01T05:14:42;5.80;99.90
62998;DHT22;55949;52.590;7.330;2023-02-01T05:15:43;5.80;99.90
62998;DHT22;55949;52.590;7.330;2023-02-01T05:16:44;5.80;99.90
62998;DHT22;55949;52.590;7.330;2023-02-01T05:17:52;5.90;99.90
62998;DHT22;55949;52.590;7.330;2023-02-01T05:18:53;5.80;99.90
62998;DHT22;55949;52.590;7.330;2023-02-01T05:19:54;5.90;99.90
62998;DHT22;55949;52.590;7.330;2023-02-01T05:20:54;5.90;99.90
62998;DHT22;55949;52.590;7.330;2023-02-01T05:21:55;6.00;99.90
62998;DHT22;55949;52.590;7.330;2023-02-01T05:22:56;6.00;99.90
62998;DHT22;55949;52.590;7.330;2023-02-01T05:23:57;6.10;99.90
62998;DHT22;55949;52.590;7.330;2023-02-01T05:25:10;6.00;99.90
62998;DHT22;55949;52.590;7.330;2023-02-01T05:26:10;6.00;99.90
62998;DHT22;55949;52.590;7.330;2023-02-01T05:27:11;6.00;99.90
62998;DHT22;55949;52.590;7.330;2023-02-01T05:28:12;6.10;99.90
62998;DHT22;55949;52.590;7.330;2023-02-01T05:29:13;6.10;99.90
62998;DHT22;55949;52.590;7.330;2023-02-01T05:30:14;6.10;99.90
62998;DHT22;55949;52.590;7.330;2023-02-01T05:31:15;6.10;99.90
62998;DHT22;55949;52.590;7.330;2023-02-01T05:32:16;6.10;99.90
62998;DHT22;55949;52.590;7.330;2023-02-01T05:33:16;6.00;99.90
62998;DHT22;55949;52.590;7.330;2023-02-01T05:34:17;6.10;99.90
62998;DHT22;55949;52.590;7.330;2023-02-01T05:35:19;6.10;99.90
62998;DHT22;55949;52.590;7.330;2023-02-01T05:36:20;6.20;99.90
62998;DHT22;55949;52.590;7.330;2023-02-01T05:37:20;6.20;99.90
62998;DHT22;55949;52.590;7.330;2023-02-01T05:38:21;6.20;99.90
62998;DHT22;55949;52.590;7.330;2023-02-01T05:39:22;6.20;99.90
62998;DHT22;55949;52.590;7.330;2023-02-01T05:40:23;6.20;99.90
62998;DHT22;55949;52.590;7.330;2023-02-01T05:41:24;6.10;99.90
62998;DHT22;55949;52.590;7.330;2023-02-01T05:42:24;6.20;99.90
62998;DHT22;55949;52.590;7.330;2023-02-01T05:43:25;6.20;99.90
62998;DHT22;55949;52.590;7.330;2023-02-01T05:44:26;6.10;99.90
62998;DHT22;55949;52.590;7.330;2023-02-01T05:45:27;6.10;99.90
62998;DHT22;55949;52.590;7.330;2023-02-01T05:46:27;6.10;99.90
62998;DHT22;55949;52.590;7.330;2023-02-01T05:47:28;6.10;99.90
62998;DHT22;55949;52.590;7.330;2023-02-01T05:48:29;6.00;99.90
62998;DHT22;55949;52.590;7.330;2023-02-01T05:49:30;6.00;99.90
62998;DHT22;55949;52.590;7.330;2023-02-01T05:50:30;6.10;99.90
62998;DHT22;55949;52.590;7.330;2023-02-01T05:51:31;6.10;99.90
62998;DHT22;55949;52.590;7.330;2023-02-01T05:52:33;6.10;99.90
62998;DHT22;55949;52.590;7.330;2023-02-01T05:53:34;6.10;99.90
62998;DHT22;55949;52.590;7.330;2023-02-01T05:54:35;6.10;99.90
62998;DHT22;55949;52.590;7.330;2023-02-01T05:55:36;6.10;99.90
62998;DHT22;55949;52.590;7.330;2023-02-01T05:56:37;6.00;99.90
62998;DHT22;55949;52.590;7.330;2023-02-01T05:57:38;6.00;99.90
62998;DHT22;55949;52.590;7.330;2023-02-01T05:58:38;6.00;99.90
62998;DHT22;55949;52.590;7.330;2023-02-01T05:59:39;6.00;99.90
62998;DHT22;55949;52.590;7.330;2023-02-01T06:00:44;6.00;99.90
62998;DHT22;55949;52.590;7.330;2023-02-01T06:01:45;6.10;99.90
62998;DHT22;55949;52.590;7.330;2023-02-01T06:02:46;6.00;99.90
62998;DHT22;55949;52.590;7.330;2023-02-01T06:03:47;6.10;99.90
62998;DHT22;55949;52.590;7.330;2023-02-01T06:04:47;6.10;99.90
62998;DHT22;55949;52.590;7.330;2023-02-01T06:05:48;6.00;99.90
62998;DHT22;55949;52.590;7.330;2023-02-01T06:06:49;6.00;99.90
62998;DHT22;55949;52.590;7.330;2023-02-01T06:07:51;6.00;99.90
62998;DHT22;55949;52.590;7.330;2023-02-01T06:08:52;6.10;99.90
62998;DHT22;55949;52.590;7.330;2023-02-01T06:09:53;6.00;99.90
62998;DHT22;55949;52.590;7.330;2023-02-01T06:11:00;6.00;99.90
62998;DHT22;55949;52.590;7.330;2023-02-01T06:12:04;6.10;99.90
62998;DHT22;55949;52.590;7.330;2023-02-01T06:13:05;6.00;99.90
62998;DHT22;55949;52.590;7.330;2023-02-01T06:14:06;6.00;99.90
62998;DHT22;55949;52.590;7.330;2023-02-01T06:15:08;6.00;99.90
62998;DHT22;55949;52.590;7.330;2023-02-01T06:16:09;6.00;99.90
62998;DHT22;55949;52.590;7.330;2023-02-01T06:17:10;6.00;99.90
62998;DHT22;55949;52.590;7.330;2023-02-01T06:18:10;6.10;99.90
62998;DHT22;55949;52.590;7.330;2023-02-01T06:19:12;6.00;99.90
62998;DHT22;55949;52.590;7.330;2023-02-01T06:20:14;6.00;99.90
62998;DHT22;55949;52.590;7.330;2023-02-01T06:21:15;6.00;99.90
62998;DHT22;55949;52.590;7.330;2023-02-01T06:22:23;6.00;99.90
62998;DHT22;55949;52.590;7.330;2023-02-01T06:23:24;6.00;99.90
62998;DHT22;55949;52.590;7.330;2023-02-01T06:24:25;6.00;99.90
62998;DHT22;55949;52.590;7.330;2023-02-01T06:25:25;6.10;99.90
62998;DHT22;55949;52.590;7.330;2023-02-01T06:26:26;6.10;99.90
62998;DHT22;55949;52.590;7.330;2023-02-01T06:27:28;6.00;99.90
62998;DHT22;55949;52.590;7.330;2023-02-01T06:28:31;6.00;99.90
62998;DHT22;55949;52.590;7.330;2023-02-01T06:29:32;6.00;99.90
62998;DHT22;55949;52.590;7.330;2023-02-01T06:30:33;6.00;99.90
62998;DHT22;55949;52.590;7.330;2023-02-01T06:31:34;6.00;99.90
62998;DHT22;55949;52.590;7.330;2023-02-01T06:32:35;6.00;99.90
62998;DHT22;55949;52.590;7.330;2023-02-01T06:33:36;6.00;99.90
62998;DHT22;55949;52.590;7.330;2023-02-01T06:34:37;6.00;99.90
62998;DHT22;55949;52.590;7.330;2023-02-01T06:35:40;6.10;99.90
62998;DHT22;55949;52.590;7.330;2023-02-01T06:36:42;6.00;99.90
62998;DHT22;55949;52.590;7.330;2023-02-01T06:37:43;6.00;99.90
62998;DHT22;55949;52.590;7.330;2023-02-01T06:38:44;6.10;99.90
62998;DHT22;55949;52.590;7.330;2023-02-01T06:39:45;6.10;99.90
62998;DHT22;55949;52.590;7.330;2023-02-01T06:40:55;6.00;99.90
62998;DHT22;55949;52.590;7.330;2023-02-01T06:41:56;6.00;99.90
62998;DHT22;55949;52.590;7.330;2023-02-01T06:42:57;6.10;99.90
62998;DHT22;55949;52.590;7.330;2023-02-01T06:43:58;6.10;99.90
62998;DHT22;55949;52.590;7.330;2023-02-01T06:44:59;6.10;99.90
62998;DHT22;55949;52.590;7.330;2023-02-01T06:46:02;6.10;99.90
62998;DHT22;55949;52.590;7.330;2023-02-01T06:47:03;6.10;99.90
62998;DHT22;55949;52.590;7.330;2023-02-01T06:48:04;6.10;99.90
62998;DHT22;55949;52.590;7.330;2023-02-01T06:49:05;6.10;99.90
62998;DHT22;55949;52.590;7.330;2023-02-01T06:50:06;6.10;99.90
62998;DHT22;55949;52.590;7.330;2023-02-01T06:51:22;6.10;99.90
62998;DHT22;55949;52.590;7.330;2023-02-01T06:52:23;6.10;99.90
62998;DHT22;55949;52.590;7.330;2023-02-01T06:53:23;6.10;99.90
62998;DHT22;55949;52.590;7.330;2023-02-01T06:54:24;6.10;99.90
62998;DHT22;55949;52.590;7.330;2023-02-01T06:55:25;6.10;99.90
62998;DHT22;55949;52.590;7.330;2023-02-01T06:56:26;6.10;99.90
62998;DHT22;55949;52.590;7.330;2023-02-01T06:57:27;6.20;99.90
62998;DHT22;55949;52.590;7.330;2023-02-01T06:58:32;6.20;99.90
62998;DHT22;55949;52.590;7.330;2023-02-01T06:59:33;6.10;99.90
62998;DHT22;55949;52.590;7.330;2023-02-01T07:00:33;6.10;99.90
62998;DHT22;55949;52.590;7.330;2023-02-01T07:01:34;6.10;99.90
62998;DHT22;55949;52.590;7.330;2023-02-01T07:02:35;6.20;99.90
62998;DHT22;55949;52.590;7.330;2023-02-01T07:03:37;6.20;99.90
62998;DHT22;55949;52.590;7.330;2023-02-01T07:04:38;6.10;99.90
62998;DHT22;55949;52.590;7.330;2023-02-01T07:05:39;6.20;99.90
62998;DHT22;55949;52.590;7.330;2023-02-01T07:06:40;6.20;99.90
62998;DHT22;55949;52.590;7.330;2023-02-01T07:07:42;6.20;99.90
62998;DHT22;55949;52.590;7.330;2023-02-01T07:08:44;6.20;99.90
62998;DHT22;55949;52.590;7.330;2023-02-01T07:09:45;6.10;99.90
62998;DHT22;55949;52.590;7.330;2023-02-01T07:10:46;6.10;99.90
62998;DHT22;55949;52.590;7.330;2023-02-01T07:11:47;6.20;99.90
62998;DHT22;55949;52.590;7.330;2023-02-01T07:12:48;6.10;99.90
62998;DHT22;55949;52.590;7.330;2023-02-01T07:13:49;6.20;99.90
62998;DHT22;55949;52.590;7.330;2023-02-01T07:14:49;6.20;99.90
62998;DHT22;55949;52.590;7.330;2023-02-01T07:15:50;6.20;99.90
62998;DHT22;55949;52.590;7.330;2023-02-01T07:16:51;6.20;99.90
62998;DHT22;55949;52.590;7.330;2023-02-01T07:17:54;6.20;99.90
62998;DHT22;55949;52.590;7.330;2023-02-01T07:18:55;6.20;99.90
62998;DHT22;55949;52.590;7.330;2023-02-01T07:19:56;6.20;99.90
62998;DHT22;55949;52.590;7.330;2023-02-01T07:20:59;6.20;99.90